Hancock, West Virginia
Current Conditions -  °F | °C
As of 12:53 AM on Sunday 21 Dec 2014 (Local Time) from KMRB Reporting Station
Overcast Overcast  
Wind Chill: 32°   Ceiling: 4000
Heat Index: 32°   Visibility: 10mi
Dew Point: 22°   Wind: 3mph
Humidity: 66%   Direction: 360°N
Pressure: 30.28"   Gusts: NA
Location:  39.5563°N, 78.2182°W
Report Text: KMRB 210553Z AUTO 36003KT 10SM BKN040 OVC055 00/M06 A3028 RMK AO2 SLP258 T00001056 10006 21017 51001 TSNO
Loading
Personal Weather Stations






























Interactive Weather Map New forecast layout! Learn more

10-Day Weather Forecast

Advertisements
Track Severe Weather on mobile